Time;durP1;ratioP1;P1;durP2;ratioP2;P2;SDS_P1;SDS_P2;PMS_P1;PMS_P2;Temp;Humidity;BMP_temperature;BMP_pressure;BME280_temperature;BME280_humidity;BME280_pressure;Samples;Min_cycle;Max_cycle;Signal;HPM_P1;HPM_P2
2021/06/20 00:00:29;;;;;;;3.77;2.57;;;18.90;99.90;;;;;;5060416;28;20616;-75
2021/06/20 00:02:57;;;;;;;2.60;2.30;;;18.90;99.90;;;;;;5058830;28;20191;-74
2021/06/20 00:06:11;;;;;;;4.00;2.33;;;18.80;99.90;;;;;;5042237;28;20571;-75
2021/06/20 00:08:37;;;;;;;3.67;2.30;;;18.90;99.90;;;;;;5050462;28;22146;-74
2021/06/20 00:11:04;;;;;;;2.67;2.30;;;18.90;99.90;;;;;;5038831;28;20195;-74
2021/06/20 00:13:30;;;;;;;2.93;2.17;;;18.90;99.90;;;;;;5039201;28;20203;-76
2021/06/20 00:15:57;;;;;;;4.10;2.17;;;18.90;99.90;;;;;;5054927;28;20204;-75
2021/06/20 00:18:23;;;;;;;3.70;2.13;;;18.80;99.90;;;;;;5060696;28;20188;-75
2021/06/20 00:20:50;;;;;;;3.90;2.30;;;18.80;99.90;;;;;;5058136;28;20576;-75
2021/06/20 00:23:16;;;;;;;3.70;2.37;;;18.80;99.90;;;;;;5061466;28;20202;-74
2021/06/20 00:25:43;;;;;;;3.07;2.40;;;18.90;99.90;;;;;;5055001;28;20706;-75
2021/06/20 00:28:09;;;;;;;3.20;2.20;;;18.90;99.90;;;;;;5058543;28;20218;-75
2021/06/20 00:30:37;;;;;;;4.27;2.03;;;18.80;99.90;;;;;;5043427;28;20683;-74
2021/06/20 00:33:05;;;;;;;3.27;2.20;;;18.70;99.90;;;;;;5046758;28;20654;-77
2021/06/20 00:35:31;;;;;;;3.63;2.30;;;18.80;99.90;;;;;;5063638;28;20250;-76
2021/06/20 00:37:58;;;;;;;5.53;2.20;;;19.00;99.90;;;;;;5058554;28;20298;-74
2021/06/20 00:40:24;;;;;;;4.57;2.27;;;19.10;99.90;;;;;;5055746;28;20199;-75
2021/06/20 00:42:51;;;;;;;2.87;2.10;;;19.10;99.90;;;;;;5080293;28;20225;-73
2021/06/20 00:45:21;;;;;;;5.53;2.57;;;19.20;99.90;;;;;;5059754;28;20688;-73
2021/06/20 00:47:47;;;;;;;2.67;1.90;;;19.30;99.90;;;;;;5061146;28;20270;-74
2021/06/20 00:50:15;;;;;;;2.53;1.90;;;19.30;99.90;;;;;;5060283;28;20272;-74
2021/06/20 00:52:42;;;;;;;3.13;2.20;;;19.30;99.90;;;;;;5057339;28;20190;-74
2021/06/20 00:55:10;;;;;;;2.83;2.03;;;19.30;99.90;;;;;;5056246;28;20187;-74
2021/06/20 00:57:36;;;;;;;3.03;2.20;;;19.20;99.90;;;;;;5057252;28;21288;-74
2021/06/20 01:00:11;;;;;;;3.47;2.10;;;19.10;99.90;;;;;;5058911;28;20199;-76
2021/06/20 01:02:38;;;;;;;4.77;2.00;;;19.10;99.90;;;;;;5058825;28;20205;-75
2021/06/20 01:05:08;;;;;;;4.17;2.23;;;19.10;99.90;;;;;;5060574;28;20206;-74
2021/06/20 01:07:35;;;;;;;2.43;2.00;;;18.90;99.90;;;;;;5059827;28;20330;-72
2021/06/20 01:10:07;;;;;;;6.30;2.13;;;18.90;99.90;;;;;;5060604;28;20219;-75
2021/06/20 01:12:34;;;;;;;2.63;2.07;;;18.80;99.90;;;;;;5053580;28;20195;-75
2021/06/20 01:15:01;;;;;;;2.90;2.10;;;18.70;99.90;;;;;;5087092;28;20269;-75
2021/06/20 01:17:28;;;;;;;3.73;2.37;;;18.70;99.90;;;;;;5059035;28;20223;-76
2021/06/20 01:19:54;;;;;;;5.63;2.10;;;18.70;99.90;;;;;;5065069;28;20194;-78
2021/06/20 01:22:30;;;;;;;2.20;2.00;;;18.70;99.90;;;;;;5048868;28;20591;-76
2021/06/20 01:25:06;;;;;;;2.20;2.00;;;18.50;99.90;;;;;;5060636;28;20190;-77
2021/06/20 01:27:43;;;;;;;2.30;2.00;;;18.60;99.90;;;;;;5058469;28;20205;-77
2021/06/20 01:30:17;;;;;;;3.77;1.80;;;18.50;99.90;;;;;;5045286;28;20268;-77
2021/06/20 01:32:43;;;;;;;3.43;2.07;;;18.70;99.90;;;;;;5060692;28;20289;-75
2021/06/20 01:35:12;;;;;;;5.10;2.00;;;18.80;99.90;;;;;;5062252;28;20187;-76
2021/06/20 01:37:39;;;;;;;3.27;2.17;;;19.00;99.90;;;;;;5065143;28;20191;-75
2021/06/20 01:40:09;;;;;;;2.43;2.07;;;19.00;99.90;;;;;;5059146;28;20221;-75
2021/06/20 01:42:35;;;;;;;2.40;2.10;;;19.10;99.90;;;;;;5059237;28;20227;-76
2021/06/20 01:45:05;;;;;;;3.33;2.23;;;19.00;99.90;;;;;;5061805;28;20191;-74
2021/06/20 01:47:31;;;;;;;4.50;2.17;;;19.00;99.90;;;;;;5057952;28;20230;-75
2021/06/20 01:50:02;;;;;;;7.70;1.80;;;19.10;99.90;;;;;;5063849;28;20222;-75
2021/06/20 01:52:29;;;;;;;3.23;2.10;;;19.10;99.90;;;;;;5060655;28;20195;-74
2021/06/20 01:54:56;;;;;;;2.23;1.97;;;19.20;99.90;;;;;;5062829;28;20194;-74
2021/06/20 01:57:31;;;;;;;2.10;1.90;;;19.20;99.90;;;;;;5042733;28;20648;-77
2021/06/20 02:00:00;;;;;;;3.43;1.90;;;19.20;99.90;;;;;;5058388;28;20273;-77
2021/06/20 02:02:28;;;;;;;2.60;2.03;;;19.20;99.90;;;;;;5043862;28;20247;-77
2021/06/20 02:04:56;;;;;;;2.17;1.90;;;19.20;99.90;;;;;;5045923;28;20793;-76
2021/06/20 02:07:25;;;;;;;2.07;1.87;;;19.30;99.90;;;;;;5062529;28;20230;-75
2021/06/20 02:09:53;;;;;;;3.63;2.07;;;19.30;99.90;;;;;;5059777;28;20275;-78
2021/06/20 02:12:25;;;;;;;6.73;2.17;;;19.40;99.90;;;;;;5043047;28;20551;-76
2021/06/20 02:14:53;;;;;;;3.20;1.97;;;19.40;99.90;;;;;;5064440;28;20210;-77
2021/06/20 02:17:27;;;;;;;4.37;2.10;;;19.40;99.90;;;;;;5045183;28;20286;-77
2021/06/20 02:19:58;;;;;;;5.00;1.70;;;19.40;99.90;;;;;;5046063;28;20205;-74
2021/06/20 02:22:30;;;;;;;3.57;2.17;;;19.40;99.90;;;;;;5063528;28;20927;-75
2021/06/20 02:24:57;;;;;;;2.70;1.90;;;19.40;99.90;;;;;;5059766;28;20223;-75
2021/06/20 02:27:23;;;;;;;4.53;2.10;;;19.40;99.90;;;;;;5063699;28;20209;-74
2021/06/20 02:29:54;;;;;;;3.43;1.70;;;19.40;99.90;;;;;;5060950;28;20222;-74
2021/06/20 02:32:23;;;;;;;2.70;2.20;;;19.30;99.90;;;;;;5057479;28;20199;-74
2021/06/20 02:34:51;;;;;;;2.10;1.90;;;19.30;99.90;;;;;;5061253;28;20287;-74
2021/06/20 02:37:19;;;;;;;3.60;2.13;;;19.30;99.90;;;;;;5061436;28;20257;-74
2021/06/20 02:39:45;;;;;;;2.27;1.83;;;19.30;99.90;;;;;;5061749;28;20202;-75
2021/06/20 02:42:12;;;;;;;2.20;2.00;;;19.40;99.90;;;;;;5063611;28;20517;-74
2021/06/20 02:44:40;;;;;;;2.37;1.83;;;19.40;99.90;;;;;;5057949;28;20191;-73
2021/06/20 02:47:07;;;;;;;3.60;1.80;;;19.40;99.90;;;;;;5061371;28;20191;-74
2021/06/20 02:49:36;;;;;;;2.90;1.87;;;19.40;99.90;;;;;;5074774;28;20664;-75
2021/06/20 02:52:06;;;;;;;4.33;1.80;;;19.40;99.90;;;;;;5056653;28;20246;-74
2021/06/20 02:54:32;;;;;;;2.10;1.83;;;19.40;99.90;;;;;;5062619;28;20191;-75
2021/06/20 02:56:59;;;;;;;2.90;2.00;;;19.40;99.90;;;;;;5057028;28;20194;-75
2021/06/20 02:59:26;;;;;;;3.27;2.00;;;19.40;99.90;;;;;;5065604;28;20205;-77
2021/06/20 03:01:53;;;;;;;2.57;1.90;;;19.40;99.90;;;;;;5057351;28;20179;-75
2021/06/20 03:04:20;;;;;;;3.70;1.90;;;19.50;99.90;;;;;;5058430;28;20227;-74
2021/06/20 03:06:46;;;;;;;2.20;2.00;;;19.60;99.90;;;;;;5059964;28;20599;-74
2021/06/20 03:09:13;;;;;;;2.90;2.03;;;19.70;99.90;;;;;;5057661;28;20675;-75
2021/06/20 03:11:42;;;;;;;2.67;2.20;;;19.70;99.90;;;;;;5057585;28;20862;-77
2021/06/20 03:14:13;;;;;;;3.90;1.97;;;19.80;99.90;;;;;;5044705;28;20206;-75
2021/06/20 03:16:39;;;;;;;2.37;1.90;;;19.80;99.90;;;;;;5060818;28;20191;-74
2021/06/20 03:19:06;;;;;;;4.23;2.10;;;19.80;99.90;;;;;;5060221;28;20254;-77
2021/06/20 03:21:33;;;;;;;2.57;1.87;;;19.90;99.90;;;;;;5043072;28;20936;-77
2021/06/20 03:24:00;;;;;;;2.17;1.97;;;19.90;99.90;;;;;;5059951;28;20236;-76
2021/06/20 03:26:26;;;;;;;3.13;1.93;;;19.90;99.90;;;;;;5045957;28;20203;-77
2021/06/20 03:28:53;;;;;;;4.73;2.10;;;19.90;99.90;;;;;;5062791;28;20233;-76
2021/06/20 03:31:19;;;;;;;2.63;1.90;;;20.00;99.90;;;;;;5057947;28;20632;-78
2021/06/20 03:33:46;;;;;;;2.33;1.90;;;20.00;99.90;;;;;;5058528;28;20290;-75
2021/06/20 03:36:12;;;;;;;4.17;1.90;;;20.00;99.90;;;;;;5063206;28;20185;-76
2021/06/20 03:38:40;;;;;;;2.13;1.60;;;20.10;99.90;;;;;;5056190;28;20285;-75
2021/06/20 03:41:09;;;;;;;4.20;1.70;;;20.10;99.90;;;;;;5059147;28;20281;-77
2021/06/20 03:43:36;;;;;;;1.97;1.77;;;20.10;99.90;;;;;;5056076;28;20739;-77
2021/06/20 03:46:03;;;;;;;4.60;1.60;;;20.10;99.90;;;;;;5046281;28;20190;-75
2021/06/20 03:48:29;;;;;;;2.07;1.60;;;20.10;99.90;;;;;;5061451;28;20206;-76
2021/06/20 03:50:56;;;;;;;2.03;1.80;;;20.10;99.90;;;;;;5056842;28;20737;-77
2021/06/20 03:53:22;;;;;;;4.57;1.70;;;20.30;99.90;;;;;;5047958;28;20187;-75
2021/06/20 03:55:49;;;;;;;6.50;1.87;;;20.40;99.90;;;;;;5058148;28;20209;-73
2021/06/20 03:58:15;;;;;;;2.00;1.70;;;20.50;99.90;;;;;;5059787;28;20206;-75
2021/06/20 04:00:41;;;;;;;2.37;1.80;;;20.50;99.90;;;;;;5039485;28;20230;-75
2021/06/20 04:03:08;;;;;;;2.53;1.70;;;20.60;99.90;;;;;;5054719;28;20206;-74
2021/06/20 04:05:34;;;;;;;2.13;1.70;;;20.80;99.90;;;;;;5060946;28;20214;-77
2021/06/20 04:08:01;;;;;;;3.10;1.80;;;20.90;99.90;;;;;;5056629;28;21064;-77
2021/06/20 04:10:28;;;;;;;5.30;2.00;;;21.00;99.90;;;;;;5057711;28;20222;-76
2021/06/20 04:12:54;;;;;;;2.10;1.90;;;21.10;99.90;;;;;;5043663;28;20205;-75
2021/06/20 04:15:21;;;;;;;2.17;1.97;;;21.20;99.90;;;;;;5060943;28;20197;-75
2021/06/20 04:17:48;;;;;;;2.53;2.00;;;21.40;99.90;;;;;;5061881;28;20195;-72
2021/06/20 04:20:14;;;;;;;3.30;2.20;;;21.40;99.90;;;;;;5058764;28;20198;-72
2021/06/20 04:22:43;;;;;;;3.60;2.10;;;21.50;99.90;;;;;;5062322;28;20216;-73
2021/06/20 04:25:15;;;;;;;3.93;1.70;;;21.40;99.90;;;;;;5061808;28;20199;-73
2021/06/20 04:27:51;;;;;;;5.03;1.97;;;21.40;99.90;;;;;;5057223;28;20571;-71
2021/06/20 04:30:23;;;;;;;3.87;1.80;;;21.30;99.90;;;;;;5052180;28;20219;-70
2021/06/20 04:32:50;;;;;;;4.83;1.90;;;21.30;99.90;;;;;;5044346;28;20198;-72
2021/06/20 04:35:19;;;;;;;2.47;2.17;;;21.40;99.90;;;;;;5057005;28;20253;-72
2021/06/20 04:37:47;;;;;;;4.47;2.30;;;21.30;99.90;;;;;;5056697;28;20199;-72
2021/06/20 04:40:18;;;;;;;3.03;2.40;;;21.40;99.90;;;;;;5059876;28;20194;-71
2021/06/20 04:42:47;;;;;;;2.53;2.30;;;21.50;99.90;;;;;;5060301;28;20575;-71
2021/06/20 04:45:14;;;;;;;3.70;2.37;;;21.50;99.90;;;;;;5062020;28;20194;-70
2021/06/20 04:47:44;;;;;;;2.00;1.90;;;21.40;99.90;;;;;;5054385;28;20837;-71
2021/06/20 04:50:11;;;;;;;9.90;2.70;;;21.60;99.90;;;;;;5065005;28;20222;-71
2021/06/20 04:52:42;;;;;;;5.30;2.27;;;21.70;99.90;;;;;;5061933;28;20905;-71
2021/06/20 04:55:13;;;;;;;2.53;2.10;;;21.80;99.90;;;;;;5064626;28;20261;-73
2021/06/20 04:57:40;;;;;;;6.57;2.30;;;21.90;99.90;;;;;;5062410;28;20176;-71
2021/06/20 05:00:09;;;;;;;3.97;2.10;;;22.00;99.90;;;;;;5064940;28;20187;-73
2021/06/20 05:02:37;;;;;;;3.33;2.03;;;21.90;99.90;;;;;;5065668;28;20210;-72
2021/06/20 05:05:05;;;;;;;4.50;2.00;;;21.90;99.90;;;;;;5065505;28;20222;-72
2021/06/20 05:07:32;;;;;;;3.40;2.20;;;22.20;99.90;;;;;;5047857;28;20272;-74
2021/06/20 05:09:58;;;;;;;4.07;2.17;;;22.20;99.90;;;;;;5046940;28;20250;-74
2021/06/20 05:12:25;;;;;;;2.17;1.87;;;22.20;99.90;;;;;;5044928;28;20801;-74
2021/06/20 05:14:51;;;;;;;2.83;1.80;;;22.30;99.90;;;;;;5050201;28;20690;-74
2021/06/20 05:17:20;;;;;;;3.13;2.10;;;22.40;99.90;;;;;;5059192;28;20199;-72
2021/06/20 05:19:47;;;;;;;7.37;1.80;;;22.40;99.90;;;;;;5057157;28;20644;-77
2021/06/20 05:22:14;;;;;;;1.90;1.70;;;22.40;99.90;;;;;;5048819;28;20310;-77
2021/06/20 05:24:41;;;;;;;2.30;2.10;;;22.50;99.90;;;;;;5064086;28;20295;-77
2021/06/20 05:27:09;;;;;;;2.60;1.80;;;22.70;99.90;;;;;;5056504;28;20203;-77
2021/06/20 05:29:36;;;;;;;2.23;1.87;;;22.70;99.90;;;;;;5059611;28;20224;-76
2021/06/20 05:32:02;;;;;;;2.77;1.87;;;23.00;99.90;;;;;;5059732;28;20194;-77
2021/06/20 05:34:28;;;;;;;2.40;1.60;;;23.00;99.90;;;;;;5063031;28;20216;-76
2021/06/20 05:36:54;;;;;;;2.80;1.90;;;23.10;99.90;;;;;;5064211;28;20191;-77
2021/06/20 05:39:21;;;;;;;4.67;1.80;;;23.30;99.90;;;;;;5063731;28;20210;-75
2021/06/20 05:41:47;;;;;;;3.73;2.07;;;23.50;99.90;;;;;;5061875;28;20189;-77
2021/06/20 05:44:13;;;;;;;2.87;1.77;;;23.60;99.90;;;;;;5039800;28;20214;-73
2021/06/20 05:46:40;;;;;;;3.87;1.80;;;23.60;99.90;;;;;;5055732;28;20763;-75
2021/06/20 05:49:06;;;;;;;6.47;1.90;;;23.80;99.90;;;;;;5046570;28;20202;-75
2021/06/20 05:51:32;;;;;;;4.00;2.03;;;24.00;99.90;;;;;;5075746;28;20289;-76
2021/06/20 05:53:58;;;;;;;3.00;1.57;;;23.90;99.90;;;;;;5046725;28;20328;-75
2021/06/20 05:56:25;;;;;;;9.13;1.90;;;23.80;99.90;;;;;;5061025;28;20529;-75
2021/06/20 05:58:51;;;;;;;2.93;1.70;;;23.90;99.90;;;;;;5064253;28;20222;-74
2021/06/20 06:01:17;;;;;;;3.63;1.93;;;24.00;99.90;;;;;;5060349;28;20226;-75
2021/06/20 06:03:44;;;;;;;2.47;2.03;;;23.90;99.90;;;;;;5064085;28;20184;-73
2021/06/20 06:06:10;;;;;;;5.07;1.97;;;24.00;99.90;;;;;;5061781;28;20240;-75
2021/06/20 06:08:37;;;;;;;2.93;1.90;;;24.10;99.90;;;;;;5048143;28;20643;-74
2021/06/20 06:11:03;;;;;;;4.53;2.33;;;24.30;99.90;;;;;;5061532;28;20194;-74
2021/06/20 06:13:30;;;;;;;2.53;1.93;;;24.30;99.90;;;;;;5061207;28;20277;-73
2021/06/20 06:15:56;;;;;;;3.43;2.03;;;24.30;99.90;;;;;;5063250;28;20187;-70
2021/06/20 06:18:22;;;;;;;2.55;1.80;;;24.40;99.90;;;;;;5060563;28;20226;-71
2021/06/20 06:20:49;;;;;;;3.30;1.92;;;24.30;99.90;;;;;;5059462;28;20256;-73
2021/06/20 06:23:15;;;;;;;3.07;2.17;;;24.40;99.90;;;;;;5058586;28;20203;-72
2021/06/20 06:25:41;;;;;;;3.88;2.10;;;24.70;99.90;;;;;;5057160;28;20202;-75
2021/06/20 06:28:08;;;;;;;5.78;2.47;;;24.80;99.90;;;;;;5047927;28;20610;-74
2021/06/20 06:30:34;;;;;;;3.42;2.20;;;24.70;99.90;;;;;;5063256;28;20211;-72
2021/06/20 06:33:04;;;;;;;3.80;2.50;;;24.70;99.90;;;;;;5041696;28;20260;-73
2021/06/20 06:35:31;;;;;;;3.75;2.22;;;24.80;99.90;;;;;;5061343;28;20190;-75
2021/06/20 06:37:58;;;;;;;4.20;2.10;;;25.10;99.90;;;;;;5059184;28;20199;-72
2021/06/20 06:40:24;;;;;;;3.88;2.05;;;25.10;99.90;;;;;;5059292;28;20193;-75
2021/06/20 06:42:51;;;;;;;4.20;2.42;;;25.20;99.90;;;;;;5059823;28;20198;-74
2021/06/20 06:45:17;;;;;;;5.40;2.08;;;25.20;99.90;;;;;;5046824;28;20560;-73
2021/06/20 06:47:44;;;;;;;5.68;2.00;;;25.20;99.90;;;;;;5043919;28;20221;-73
2021/06/20 06:50:11;;;;;;;2.22;1.73;;;25.30;99.90;;;;;;5063170;28;20781;-73
2021/06/20 06:52:37;;;;;;;4.32;2.00;;;25.40;99.90;;;;;;5055053;28;20183;-76
2021/06/20 06:55:05;;;;;;;4.25;1.80;;;25.40;99.90;;;;;;5062621;28;20528;-75
2021/06/20 06:57:34;;;;;;;3.08;1.77;;;25.30;99.90;;;;;;5062271;28;20609;-74
2021/06/20 07:00:00;;;;;;;3.17;1.98;;;25.40;99.90;;;;;;5055689;28;20203;-73
2021/06/20 07:02:26;;;;;;;3.70;2.10;;;25.40;99.90;;;;;;5061111;28;20192;-75
2021/06/20 07:04:53;;;;;;;3.53;2.20;;;25.40;99.90;;;;;;5061940;28;20241;-75
2021/06/20 07:07:19;;;;;;;2.92;2.03;;;25.70;99.90;;;;;;5061033;28;20190;-76
2021/06/20 07:09:46;;;;;;;3.50;2.22;;;25.80;99.90;;;;;;5045322;28;20226;-76
2021/06/20 07:12:13;;;;;;;2.15;1.95;;;25.90;99.90;;;;;;5056337;28;20346;-74
2021/06/20 07:14:39;;;;;;;8.95;2.28;;;25.90;99.90;;;;;;5046318;28;20186;-75
2021/06/20 07:17:09;;;;;;;3.00;2.00;;;26.00;99.90;;;;;;5063035;28;20191;-77
2021/06/20 07:19:36;;;;;;;3.22;1.83;;;25.90;99.90;;;;;;5046093;28;20289;-73
2021/06/20 07:22:05;;;;;;;3.55;1.98;;;26.10;99.90;;;;;;5062211;28;20252;-74
2021/06/20 07:24:31;;;;;;;3.67;1.90;;;26.10;99.90;;;;;;5042528;28;20336;-75
2021/06/20 07:26:58;;;;;;;6.65;2.08;;;26.30;99.90;;;;;;5048054;28;20202;-75
2021/06/20 07:29:24;;;;;;;3.00;2.00;;;26.40;99.90;;;;;;5087413;28;20199;-73
2021/06/20 07:31:50;;;;;;;3.20;1.77;;;26.30;99.90;;;;;;5060393;28;20187;-74
2021/06/20 07:34:17;;;;;;;12.15;2.58;;;26.40;99.90;;;;;;5057910;28;20317;-70
2021/06/20 07:36:43;;;;;;;7.20;2.30;;;26.60;99.90;;;;;;5084589;28;20267;-72
2021/06/20 07:39:10;;;;;;;4.38;2.30;;;26.60;99.90;;;;;;5057862;28;20208;-71
2021/06/20 07:41:36;;;;;;;6.25;2.63;;;26.60;99.90;;;;;;5058923;28;20225;-73
2021/06/20 07:44:04;;;;;;;15.18;2.50;;;26.70;99.90;;;;;;5071972;28;20663;-75
2021/06/20 07:46:30;;;;;;;7.88;2.38;;;26.80;99.90;;;;;;5054083;28;20283;-76
2021/06/20 07:48:57;;;;;;;4.32;2.22;;;26.90;99.90;;;;;;5058318;28;20983;-76
2021/06/20 07:51:23;;;;;;;5.38;2.20;;;26.80;99.90;;;;;;5080750;28;20189;-74
2021/06/20 07:53:49;;;;;;;7.82;2.72;;;26.90;99.90;;;;;;5047060;28;20516;-75
2021/06/20 07:56:16;;;;;;;6.18;2.22;;;27.10;99.90;;;;;;5059947;28;20248;-75
2021/06/20 07:58:42;;;;;;;5.93;2.35;;;27.10;99.90;;;;;;5057917;28;20253;-73
2021/06/20 08:01:09;;;;;;;7.47;2.45;;;27.10;99.90;;;;;;5060870;28;20184;-73
2021/06/20 08:03:35;;;;;;;7.57;2.53;;;27.20;99.90;;;;;;5050315;28;20206;-75
2021/06/20 08:06:02;;;;;;;3.65;2.22;;;27.30;99.90;;;;;;5057848;28;20187;-75
2021/06/20 08:08:28;;;;;;;4.65;2.55;;;27.20;99.90;;;;;;5061484;28;20190;-74
2021/06/20 08:10:56;;;;;;;4.57;2.20;;;27.00;99.90;;;;;;5061022;28;20226;-75
2021/06/20 08:13:23;;;;;;;7.60;2.78;;;27.30;99.90;;;;;;5062728;28;20283;-72
2021/06/20 08:15:49;;;;;;;6.30;2.33;;;27.70;99.90;;;;;;5056285;28;20915;-75
2021/06/20 08:18:15;;;;;;;5.28;2.50;;;27.70;99.90;;;;;;5057796;28;20194;-73
2021/06/20 08:20:42;;;;;;;6.47;2.50;;;27.50;99.90;;;;;;5060098;28;20505;-76
2021/06/20 08:23:08;;;;;;;7.45;2.30;;;27.70;99.90;;;;;;5042889;28;20186;-76
2021/06/20 08:25:34;;;;;;;12.48;2.55;;;27.70;99.90;;;;;;5054220;28;20190;-75
2021/06/20 08:28:01;;;;;;;4.70;2.60;;;27.80;99.90;;;;;;5042865;28;20195;-75
2021/06/20 08:30:27;;;;;;;5.35;2.22;;;27.80;99.90;;;;;;5061040;28;20613;-77
2021/06/20 08:32:53;;;;;;;3.67;2.35;;;27.80;99.90;;;;;;5056073;28;20184;-73
2021/06/20 08:35:20;;;;;;;8.20;2.58;;;27.80;99.90;;;;;;5060620;28;20663;-76
2021/06/20 08:37:47;;;;;;;6.65;2.30;;;28.10;99.90;;;;;;5059361;28;20182;-76
2021/06/20 08:40:15;;;;;;;5.63;2.30;;;28.10;99.90;;;;;;5056247;28;20934;-76
2021/06/20 08:42:41;;;;;;;6.80;2.30;;;28.20;99.90;;;;;;5059724;28;20214;-76
2021/06/20 08:45:09;;;;;;;5.63;2.42;;;28.20;99.90;;;;;;5060012;28;20199;-76
2021/06/20 08:47:36;;;;;;;6.32;2.38;;;28.10;99.90;;;;;;5045672;28;20628;-75
2021/06/20 08:50:04;;;;;;;9.93;2.85;;;28.20;99.90;;;;;;5061055;28;20210;-75
2021/06/20 08:52:30;;;;;;;8.30;2.78;;;28.30;99.90;;;;;;5061273;28;20596;-75
2021/06/20 08:55:07;;;;;;;5.47;2.50;;;28.40;99.90;;;;;;5059014;28;20186;-74
2021/06/20 08:57:43;;;;;;;6.80;2.70;;;28.40;99.90;;;;;;5057380;28;20829;-73
2021/06/20 09:00:18;;;;;;;5.18;2.40;;;28.70;99.90;;;;;;5043245;28;20187;-76
2021/06/20 09:02:58;;;;;;;8.20;2.70;;;28.60;99.90;;;;;;5040125;28;20390;-77
2021/06/20 09:05:24;;;;;;;6.05;2.60;;;28.70;99.90;;;;;;5061479;28;20198;-76
2021/06/20 09:07:50;;;;;;;6.47;2.40;;;28.70;99.90;;;;;;5062510;28;20206;-76
2021/06/20 09:10:26;;;;;;;8.48;2.28;;;28.80;99.90;;;;;;5039090;28;20498;-78
2021/06/20 09:12:56;;;;;;;6.32;2.67;;;29.00;99.90;;;;;;5057909;28;20182;-78
2021/06/20 09:15:33;;;;;;;6.55;2.60;;;29.00;99.90;;;;;;5040066;28;20248;-77
2021/06/20 09:18:06;;;;;;;8.00;2.75;;;29.00;99.90;;;;;;5058430;28;20195;-77
2021/06/20 09:20:37;;;;;;;6.85;2.40;;;28.90;99.90;;;;;;5049883;28;20203;-77
2021/06/20 09:23:08;;;;;;;6.93;2.90;;;28.90;99.90;;;;;;5045169;28;20379;-77
2021/06/20 09:25:38;;;;;;;6.90;2.35;;;29.00;99.90;;;;;;5061541;28;20212;-78
2021/06/20 09:28:06;;;;;;;14.18;2.83;;;29.20;99.90;;;;;;5058826;28;20313;-77
2021/06/20 09:30:39;;;;;;;11.02;2.63;;;29.40;99.90;;;;;;5044376;28;20271;-77
2021/06/20 09:33:07;;;;;;;5.38;2.60;;;29.60;99.90;;;;;;5053844;28;20197;-77
2021/06/20 09:35:55;;;;;;;6.40;2.60;;;29.60;99.90;;;;;;5065256;28;20199;-77
2021/06/20 09:38:29;;;;;;;7.65;2.17;;;29.60;99.90;;;;;;5045183;28;20249;-78
2021/06/20 09:41:11;;;;;;;8.93;2.88;;;29.60;99.90;;;;;;5060975;28;20195;-79
2021/06/20 09:43:51;;;;;;;8.55;3.05;;;29.80;99.90;;;;;;5059656;28;20191;-78
2021/06/20 09:46:18;;;;;;;5.60;2.15;;;29.60;99.90;;;;;;5045514;28;20648;-76
2021/06/20 09:48:45;;;;;;;6.57;2.30;;;29.60;99.90;;;;;;5064192;28;20284;-75
2021/06/20 09:51:26;;;;;;;9.18;3.00;;;29.90;99.90;;;;;;5063483;28;20187;-75
2021/06/20 09:53:53;;;;;;;5.20;2.53;;;30.10;99.90;;;;;;5057193;28;20236;-76
2021/06/20 09:56:25;;;;;;;9.50;2.85;;;29.80;99.90;;;;;;5040129;28;20202;-76
2021/06/20 09:59:00;;;;;;;6.72;2.33;;;29.90;99.90;;;;;;5061714;28;20187;-75
2021/06/20 10:01:28;;;;;;;5.93;2.38;;;30.30;99.90;;;;;;5040282;28;20201;-75
2021/06/20 10:03:55;;;;;;;7.05;2.50;;;30.20;99.90;;;;;;5045837;28;20272;-75
2021/06/20 10:06:22;;;;;;;5.30;2.38;;;30.00;99.90;;;;;;5059717;28;20191;-74
2021/06/20 10:08:49;;;;;;;7.75;2.47;;;30.30;99.90;;;;;;5063436;28;20647;-75
2021/06/20 10:11:16;;;;;;;6.57;2.17;;;30.40;99.90;;;;;;5061526;28;20211;-74
2021/06/20 10:13:44;;;;;;;6.88;2.38;;;30.30;99.90;;;;;;5042535;28;20570;-75
2021/06/20 10:16:21;;;;;;;8.35;2.33;;;30.70;99.90;;;;;;5064467;28;20520;-76
2021/06/20 10:19:11;;;;;;;9.15;2.53;;;30.80;99.90;;;;;;5059322;28;20289;-75
2021/06/20 10:21:45;;;;;;;5.85;2.80;;;30.90;99.90;;;;;;5063838;28;20194;-75
2021/06/20 10:24:19;;;;;;;13.18;3.05;;;30.80;99.90;;;;;;5056682;28;20516;-75
2021/06/20 10:26:52;;;;;;;6.47;2.70;;;30.50;99.90;;;;;;5057898;28;20401;-75
2021/06/20 10:29:28;;;;;;;9.50;2.92;;;30.30;99.90;;;;;;5045614;28;20207;-75
2021/06/20 10:31:58;;;;;;;13.77;2.88;;;30.30;99.90;;;;;;5063833;28;20182;-75
2021/06/20 10:34:32;;;;;;;8.13;2.53;;;30.40;99.90;;;;;;5058808;28;20268;-75
2021/06/20 10:37:04;;;;;;;7.13;2.53;;;30.50;99.90;;;;;;5064366;28;20637;-76
2021/06/20 10:39:32;;;;;;;8.15;2.70;;;30.10;99.90;;;;;;5065555;28;20194;-77
2021/06/20 10:42:11;;;;;;;7.30;2.50;;;30.10;99.90;;;;;;5072806;28;20665;-76
2021/06/20 10:44:50;;;;;;;5.15;2.33;;;30.20;99.90;;;;;;5061365;28;20187;-75
2021/06/20 10:47:42;;;;;;;6.57;2.00;;;29.60;99.90;;;;;;5061067;28;20248;-75
2021/06/20 10:50:16;;;;;;;6.10;2.40;;;29.80;99.90;;;;;;5043618;28;20616;-74
2021/06/20 10:52:58;;;;;;;5.68;2.40;;;29.80;99.90;;;;;;5061195;28;20635;-74
2021/06/20 10:55:25;;;;;;;4.45;2.10;;;29.90;99.90;;;;;;5052890;28;20191;-76
2021/06/20 10:57:55;;;;;;;6.35;2.55;;;30.00;99.90;;;;;;5058064;28;20284;-73
2021/06/20 11:00:35;;;;;;;8.43;2.42;;;29.80;99.60;;;;;;5059240;28;20256;-75
2021/06/20 11:03:27;;;;;;;4.18;2.25;;;29.60;99.70;;;;;;5064762;28;20186;-76
2021/06/20 11:06:13;;;;;;;6.93;2.25;;;29.70;99.90;;;;;;5058453;28;20217;-76
2021/06/20 11:09:04;;;;;;;4.03;2.22;;;30.00;99.70;;;;;;5062159;28;20190;-75
2021/06/20 11:11:36;;;;;;;6.10;2.10;;;30.10;99.40;;;;;;5053927;28;20195;-75
2021/06/20 11:14:09;;;;;;;4.68;2.17;;;29.80;99.40;;;;;;5055044;28;20195;-74
2021/06/20 11:16:36;;;;;;;3.35;2.05;;;29.50;99.90;;;;;;5043474;28;20623;-74
2021/06/20 11:19:12;;;;;;;7.22;2.30;;;29.50;99.90;;;;;;5062050;28;20387;-74
2021/06/20 11:21:49;;;;;;;6.30;1.90;;;29.60;99.90;;;;;;5085147;28;20179;-75
2021/06/20 11:24:19;;;;;;;9.85;2.20;;;29.70;99.90;;;;;;5050172;28;20666;-76
2021/06/20 11:27:18;;;;;;;5.30;1.90;;;29.70;99.50;;;;;;5061023;28;20186;-76
2021/06/20 11:29:51;;;;;;;7.88;2.17;;;29.80;99.90;;;;;;5055342;28;20215;-75
2021/06/20 11:32:29;;;;;;;4.45;2.05;;;29.70;99.90;;;;;;5060050;28;20244;-76
2021/06/20 11:35:08;;;;;;;5.30;1.92;;;29.40;98.80;;;;;;5070597;28;20187;-76
2021/06/20 11:37:44;;;;;;;6.22;2.13;;;29.40;99.90;;;;;;5057932;28;20183;-76
2021/06/20 11:40:25;;;;;;;3.90;2.17;;;29.50;99.40;;;;;;5080826;28;20191;-76
2021/06/20 11:42:55;;;;;;;5.53;2.35;;;29.30;99.90;;;;;;5057100;28;20198;-74
2021/06/20 11:45:26;;;;;;;8.02;2.10;;;29.40;99.90;;;;;;5044461;28;20236;-77
2021/06/20 11:48:00;;;;;;;2.58;1.75;;;29.40;99.10;;;;;;5062778;28;20183;-76
2021/06/20 11:50:34;;;;;;;3.72;1.90;;;29.20;97.40;;;;;;5038713;28;20215;-75
2021/06/20 11:53:10;;;;;;;3.88;2.20;;;29.20;98.00;;;;;;5057767;28;20751;-76
2021/06/20 11:55:43;;;;;;;3.03;1.73;;;29.10;98.70;;;;;;5048617;28;20279;-76
2021/06/20 11:58:13;;;;;;;5.82;1.80;;;29.30;97.10;;;;;;5046291;28;20191;-76
2021/06/20 12:00:46;;;;;;;5.85;1.85;;;29.30;96.00;;;;;;5062296;28;20213;-77
2021/06/20 12:03:19;;;;;;;3.33;1.80;;;29.20;97.10;;;;;;5059438;28;20179;-76
2021/06/20 12:05:55;;;;;;;2.95;1.73;;;29.10;98.30;;;;;;5068109;28;20214;-77
2021/06/20 12:08:22;;;;;;;3.00;1.70;;;29.40;97.10;;;;;;5066123;28;20187;-76
2021/06/20 12:10:49;;;;;;;6.45;2.20;;;29.30;98.60;;;;;;5059840;28;20222;-76
2021/06/20 12:13:17;;;;;;;6.97;2.53;;;29.30;99.90;;;;;;5056273;28;20198;-76
2021/06/20 12:15:45;;;;;;;4.43;1.80;;;29.20;99.90;;;;;;5073436;28;20184;-77
2021/06/20 12:18:15;;;;;;;7.28;2.38;;;29.00;99.90;;;;;;5055828;28;20841;-78
2021/06/20 12:20:46;;;;;;;3.55;2.08;;;28.90;99.00;;;;;;5054378;28;20262;-76
2021/06/20 12:23:35;;;;;;;9.73;3.03;;;28.70;99.50;;;;;;5053559;28;20191;-76
2021/06/20 12:26:03;;;;;;;4.93;2.58;;;28.80;99.40;;;;;;5057459;28;20267;-75
2021/06/20 12:28:29;;;;;;;11.20;2.60;;;28.90;99.60;;;;;;5060117;28;20605;-76
2021/06/20 12:30:57;;;;;;;4.30;2.30;;;28.70;99.30;;;;;;5040809;28;20222;-76
2021/06/20 12:33:25;;;;;;;14.07;2.42;;;28.70;98.70;;;;;;5059554;28;20183;-76
2021/06/20 12:36:01;;;;;;;3.45;1.65;;;28.60;99.20;;;;;;5054957;28;20194;-77
2021/06/20 12:38:30;;;;;;;2.80;1.80;;;28.60;98.90;;;;;;5072455;28;20175;-77
2021/06/20 12:40:58;;;;;;;5.28;1.70;;;28.70;98.90;;;;;;5041016;28;20198;-77
2021/06/20 12:43:26;;;;;;;2.97;1.90;;;28.80;99.30;;;;;;5040523;28;20220;-77
2021/06/20 12:46:04;;;;;;;8.43;2.22;;;28.70;99.60;;;;;;5057468;28;20270;-78
2021/06/20 12:48:39;;;;;;;13.75;2.70;;;28.60;99.60;;;;;;5039810;28;20645;-76
2021/06/20 12:51:09;;;;;;;5.45;2.38;;;28.50;99.90;;;;;;5050115;28;20285;-76
2021/06/20 12:53:43;;;;;;;3.75;2.03;;;28.70;99.40;;;;;;5053444;28;20264;-78
2021/06/20 12:56:23;;;;;;;3.70;1.70;;;28.80;99.70;;;;;;5052994;28;20183;-77